Time;durP1;ratioP1;P1;durP2;ratioP2;P2;SDS_P1;SDS_P2;PMS_P1;PMS_P2;Temp;Humidity;BMP_temperature;BMP_pressure;BME280_temperature;BME280_humidity;BME280_pressure;Samples;Min_cycle;Max_cycle;Signal;HPM_P1;HPM_P2
2021/10/18 00:00:26;;;;;;;15.77;9.45;;;;;;;;;;5136292;27;20093;-75
2021/10/18 00:02:52;;;;;;;12.93;9.55;;;;;;;;;;5114049;27;20051;-73
2021/10/18 00:05:18;;;;;;;14.13;9.90;;;;;;;;;;5138766;27;20035;-74
2021/10/18 00:07:45;;;;;;;15.68;9.93;;;;;;;;;;5122931;27;20054;-73
2021/10/18 00:10:11;;;;;;;14.13;9.60;;;;;;;;;;5135552;27;20050;-73
2021/10/18 00:12:38;;;;;;;14.30;9.43;;;;;;;;;;5139325;27;20505;-73
2021/10/18 00:15:05;;;;;;;12.43;9.73;;;;;;;;;;5128187;27;20051;-73
2021/10/18 00:17:31;;;;;;;18.23;10.65;;;;;;;;;;5137101;27;20047;-73
2021/10/18 00:19:57;;;;;;;13.25;10.52;;;;;;;;;;5145085;27;20493;-73
2021/10/18 00:22:23;;;;;;;14.63;9.60;;;;;;;;;;5119647;27;20550;-74
2021/10/18 00:24:49;;;;;;;14.27;10.13;;;;;;;;;;5141578;27;20457;-74
2021/10/18 00:27:15;;;;;;;13.50;10.55;;;;;;;;;;5143906;27;20389;-73
2021/10/18 00:29:41;;;;;;;17.50;10.48;;;;;;;;;;5141830;27;20067;-73
2021/10/18 00:32:07;;;;;;;14.00;9.55;;;;;;;;;;5119382;27;20049;-73
2021/10/18 00:34:34;;;;;;;13.63;10.15;;;;;;;;;;5116468;28;20055;-73
2021/10/18 00:37:00;;;;;;;18.15;10.57;;;;;;;;;;5118754;28;20377;-73
2021/10/18 00:39:26;;;;;;;20.58;10.50;;;;;;;;;;5116508;28;20050;-73
2021/10/18 00:41:52;;;;;;;29.55;10.13;;;;;;;;;;5118307;28;20031;-73
2021/10/18 00:44:18;;;;;;;21.40;11.07;;;;;;;;;;5117771;28;20038;-73
2021/10/18 00:46:45;;;;;;;16.70;10.05;;;;;;;;;;5115710;28;20382;-73
2021/10/18 00:49:11;;;;;;;12.93;9.85;;;;;;;;;;5114448;28;20124;-74
2021/10/18 00:51:37;;;;;;;19.52;11.00;;;;;;;;;;5120294;28;20043;-73
2021/10/18 00:54:04;;;;;;;14.93;10.10;;;;;;;;;;5119112;28;20087;-73
2021/10/18 00:56:30;;;;;;;14.40;10.48;;;;;;;;;;5114363;28;20063;-73
2021/10/18 00:58:59;;;;;;;14.82;10.30;;;;;;;;;;5118121;28;20036;-73
2021/10/18 01:01:25;;;;;;;15.88;10.82;;;;;;;;;;5119196;28;20045;-74
2021/10/18 01:03:51;;;;;;;12.07;9.93;;;;;;;;;;5122957;28;20213;-73
2021/10/18 01:06:17;;;;;;;15.82;10.25;;;;;;;;;;5123685;28;20040;-73
2021/10/18 01:08:44;;;;;;;14.68;9.63;;;;;;;;;;5122436;28;20064;-73
2021/10/18 01:11:10;;;;;;;13.02;10.02;;;;;;;;;;5121801;28;20462;-74
2021/10/18 01:13:36;;;;;;;17.10;11.02;;;;;;;;;;5126611;28;20043;-74
2021/10/18 01:16:02;;;;;;;16.45;10.48;;;;;;;;;;5113122;28;20047;-73
2021/10/18 01:18:29;;;;;;;14.20;10.05;;;;;;;;;;5122657;27;20063;-73
2021/10/18 01:20:55;;;;;;;18.50;10.93;;;;;;;;;;5119220;27;20093;-73
2021/10/18 01:23:21;;;;;;;14.07;11.05;;;;;;;;;;5116090;27;20415;-73
2021/10/18 01:25:47;;;;;;;16.15;11.02;;;;;;;;;;5118363;27;20120;-73
2021/10/18 01:28:13;;;;;;;14.90;10.40;;;;;;;;;;5121043;27;20092;-73
2021/10/18 01:30:39;;;;;;;14.98;10.18;;;;;;;;;;5123765;27;20039;-74
2021/10/18 01:33:05;;;;;;;17.35;10.90;;;;;;;;;;5121571;27;20032;-74
2021/10/18 01:35:32;;;;;;;13.80;10.82;;;;;;;;;;5120812;27;20432;-74
2021/10/18 01:37:58;;;;;;;15.77;10.48;;;;;;;;;;5122642;27;20420;-73
2021/10/18 01:40:27;;;;;;;13.00;10.10;;;;;;;;;;5130190;27;20084;-74
2021/10/18 01:42:53;;;;;;;16.60;9.73;;;;;;;;;;5125104;27;20055;-74
2021/10/18 01:45:20;;;;;;;15.77;10.80;;;;;;;;;;5114248;27;20050;-74
2021/10/18 01:47:47;;;;;;;16.08;10.68;;;;;;;;;;5116690;27;20092;-74
2021/10/18 01:50:18;;;;;;;17.73;10.73;;;;;;;;;;5123080;27;20043;-74
2021/10/18 01:52:45;;;;;;;14.77;10.57;;;;;;;;;;5128954;27;20043;-73
2021/10/18 01:55:11;;;;;;;17.08;10.95;;;;;;;;;;5116622;27;20043;-74
2021/10/18 01:57:37;;;;;;;14.13;9.93;;;;;;;;;;5121103;27;20039;-73
2021/10/18 02:00:04;;;;;;;18.83;10.80;;;;;;;;;;5121158;27;20039;-73
2021/10/18 02:02:30;;;;;;;15.48;10.25;;;;;;;;;;5122935;27;20050;-73
2021/10/18 02:04:56;;;;;;;19.83;10.93;;;;;;;;;;5117971;27;20054;-73
2021/10/18 02:07:23;;;;;;;16.33;10.50;;;;;;;;;;5124661;27;20719;-73
2021/10/18 02:09:50;;;;;;;14.63;10.27;;;;;;;;;;5118226;27;20053;-74
2021/10/18 02:12:16;;;;;;;15.38;11.80;;;;;;;;;;5121663;27;20043;-74
2021/10/18 02:14:42;;;;;;;16.63;11.10;;;;;;;;;;5125178;27;20046;-74
2021/10/18 02:17:08;;;;;;;18.63;10.88;;;;;;;;;;5114637;27;20035;-74
2021/10/18 02:19:34;;;;;;;17.67;10.32;;;;;;;;;;5115367;27;20039;-74
2021/10/18 02:22:00;;;;;;;18.15;10.38;;;;;;;;;;5125683;27;20490;-73
2021/10/18 02:24:26;;;;;;;15.57;10.70;;;;;;;;;;5120008;27;20043;-74
2021/10/18 02:26:52;;;;;;;16.73;11.25;;;;;;;;;;5119180;27;20095;-73
2021/10/18 02:29:18;;;;;;;15.25;10.55;;;;;;;;;;5122807;27;20039;-74
2021/10/18 02:31:44;;;;;;;15.90;11.15;;;;;;;;;;5115185;27;20028;-73
2021/10/18 02:34:11;;;;;;;16.50;11.45;;;;;;;;;;5125688;27;20129;-74
2021/10/18 02:36:37;;;;;;;16.08;11.73;;;;;;;;;;5137348;27;20514;-74
2021/10/18 02:39:03;;;;;;;19.23;11.70;;;;;;;;;;5127711;27;20042;-73
2021/10/18 02:41:29;;;;;;;16.13;11.10;;;;;;;;;;5119888;27;20047;-74
2021/10/18 02:43:55;;;;;;;15.50;11.35;;;;;;;;;;5140276;27;20039;-74
2021/10/18 02:46:21;;;;;;;16.10;11.18;;;;;;;;;;5125663;27;20084;-73
2021/10/18 02:48:47;;;;;;;18.85;11.95;;;;;;;;;;5139037;27;20083;-74
2021/10/18 02:51:13;;;;;;;14.35;10.93;;;;;;;;;;5141227;27;20045;-74
2021/10/18 02:53:39;;;;;;;17.17;11.85;;;;;;;;;;5118413;27;20490;-74
2021/10/18 02:56:05;;;;;;;17.27;11.18;;;;;;;;;;5136204;27;20034;-74
2021/10/18 02:58:31;;;;;;;18.50;11.65;;;;;;;;;;5137796;27;20051;-74
2021/10/18 03:00:57;;;;;;;18.10;11.55;;;;;;;;;;5116908;27;20053;-74
2021/10/18 03:03:23;;;;;;;19.52;12.55;;;;;;;;;;5138784;27;20259;-74
2021/10/18 03:05:49;;;;;;;15.02;11.48;;;;;;;;;;5104439;27;20031;-73
2021/10/18 03:08:15;;;;;;;20.00;11.02;;;;;;;;;;5121252;27;20122;-74
2021/10/18 03:10:41;;;;;;;18.17;12.25;;;;;;;;;;5143231;27;20039;-74
2021/10/18 03:13:08;;;;;;;19.38;11.48;;;;;;;;;;5124273;27;20027;-74
2021/10/18 03:15:34;;;;;;;18.63;11.88;;;;;;;;;;5119056;27;20039;-74
2021/10/18 03:18:00;;;;;;;15.27;10.80;;;;;;;;;;5129858;27;20064;-74
2021/10/18 03:20:26;;;;;;;21.40;11.80;;;;;;;;;;5134616;27;20030;-73
2021/10/18 03:22:53;;;;;;;18.00;10.98;;;;;;;;;;5117511;27;20073;-74
2021/10/18 03:25:19;;;;;;;18.85;11.10;;;;;;;;;;5099325;27;20039;-74
2021/10/18 03:27:46;;;;;;;17.02;10.93;;;;;;;;;;5135669;27;20046;-74
2021/10/18 03:30:12;;;;;;;19.25;11.40;;;;;;;;;;5129008;27;20035;-74
2021/10/18 03:32:38;;;;;;;12.75;10.75;;;;;;;;;;5130825;27;20134;-74
2021/10/18 03:35:05;;;;;;;20.20;11.85;;;;;;;;;;5127549;27;20385;-74
2021/10/18 03:37:32;;;;;;;15.70;11.60;;;;;;;;;;5134579;27;20050;-74
2021/10/18 03:39:58;;;;;;;19.77;11.40;;;;;;;;;;5129474;27;20030;-74
2021/10/18 03:42:24;;;;;;;19.67;11.75;;;;;;;;;;5126728;27;20707;-74
2021/10/18 03:44:50;;;;;;;21.35;11.80;;;;;;;;;;5119804;27;20462;-74
2021/10/18 03:47:16;;;;;;;16.15;11.63;;;;;;;;;;5139351;27;20031;-74
2021/10/18 03:49:43;;;;;;;18.52;11.60;;;;;;;;;;5136404;27;20110;-73
2021/10/18 03:52:09;;;;;;;18.65;12.10;;;;;;;;;;5139298;27;20130;-74
2021/10/18 03:54:35;;;;;;;21.05;12.57;;;;;;;;;;5137437;27;20035;-74
2021/10/18 03:57:01;;;;;;;19.38;11.80;;;;;;;;;;5126420;27;20462;-74
2021/10/18 03:59:27;;;;;;;24.50;12.80;;;;;;;;;;5123957;27;20047;-73
2021/10/18 04:01:53;;;;;;;18.33;11.45;;;;;;;;;;5108790;27;20438;-74
2021/10/18 04:04:19;;;;;;;16.15;11.77;;;;;;;;;;5125518;27;20050;-73
2021/10/18 04:06:46;;;;;;;18.67;12.30;;;;;;;;;;5146905;27;20496;-74
2021/10/18 04:09:12;;;;;;;19.75;12.27;;;;;;;;;;5126674;27;20339;-74
2021/10/18 04:11:39;;;;;;;24.27;12.93;;;;;;;;;;5142565;27;20046;-73
2021/10/18 04:14:08;;;;;;;18.80;12.65;;;;;;;;;;5125960;27;20125;-74
2021/10/18 04:16:35;;;;;;;19.02;12.98;;;;;;;;;;5139986;27;20071;-74
2021/10/18 04:19:01;;;;;;;22.20;12.50;;;;;;;;;;5138045;27;20465;-74
2021/10/18 04:21:27;;;;;;;23.80;13.90;;;;;;;;;;5141767;27;20045;-74
2021/10/18 04:23:53;;;;;;;18.60;12.88;;;;;;;;;;5139946;27;20039;-74
2021/10/18 04:26:19;;;;;;;24.85;14.27;;;;;;;;;;5135082;27;20027;-74
2021/10/18 04:28:46;;;;;;;19.42;13.45;;;;;;;;;;5137501;27;20035;-74
2021/10/18 04:31:12;;;;;;;21.30;14.45;;;;;;;;;;5122658;27;20126;-73
2021/10/18 04:33:38;;;;;;;18.20;13.90;;;;;;;;;;5117300;27;20046;-73
2021/10/18 04:36:04;;;;;;;24.27;13.88;;;;;;;;;;5118893;27;20100;-74
2021/10/18 04:38:31;;;;;;;18.85;14.10;;;;;;;;;;5133560;27;20070;-73
2021/10/18 04:40:57;;;;;;;23.58;14.52;;;;;;;;;;5120807;27;20091;-73
2021/10/18 04:43:23;;;;;;;17.42;12.95;;;;;;;;;;5123616;27;20039;-73
2021/10/18 04:45:49;;;;;;;18.85;13.45;;;;;;;;;;5143117;27;20031;-73
2021/10/18 04:48:15;;;;;;;23.08;14.30;;;;;;;;;;5118075;27;20038;-73
2021/10/18 04:50:41;;;;;;;21.85;14.27;;;;;;;;;;5116550;27;20074;-73
2021/10/18 04:53:07;;;;;;;20.77;14.43;;;;;;;;;;5141967;27;20035;-73
2021/10/18 04:55:33;;;;;;;21.25;14.63;;;;;;;;;;5136831;27;20051;-73
2021/10/18 04:58:04;;;;;;;18.08;14.32;;;;;;;;;;5125121;27;20085;-75
2021/10/18 05:00:41;;;;;;;20.88;13.38;;;;;;;;;;5148515;27;20039;-71
2021/10/18 05:03:08;;;;;;;20.42;14.27;;;;;;;;;;5128449;27;20042;-73
2021/10/18 05:05:35;;;;;;;22.73;14.50;;;;;;;;;;5120163;27;20058;-74
2021/10/18 05:08:02;;;;;;;24.05;14.07;;;;;;;;;;5105455;27;20478;-73
2021/10/18 05:10:28;;;;;;;25.50;14.85;;;;;;;;;;5117889;27;20058;-74
2021/10/18 05:12:54;;;;;;;22.42;14.48;;;;;;;;;;5116280;27;20087;-73
2021/10/18 05:15:20;;;;;;;23.70;15.02;;;;;;;;;;5118976;27;20041;-73
2021/10/18 05:17:46;;;;;;;24.25;15.20;;;;;;;;;;5121555;27;20042;-73
2021/10/18 05:20:12;;;;;;;22.27;15.52;;;;;;;;;;5120048;27;20059;-75
2021/10/18 05:22:38;;;;;;;25.70;15.20;;;;;;;;;;5120344;27;20047;-75
2021/10/18 05:25:04;;;;;;;22.55;15.52;;;;;;;;;;5118334;27;20126;-75
2021/10/18 05:27:30;;;;;;;20.83;14.88;;;;;;;;;;5119850;27;20104;-75
2021/10/18 05:29:56;;;;;;;25.27;15.20;;;;;;;;;;5129910;27;20043;-75
2021/10/18 05:32:23;;;;;;;25.48;16.60;;;;;;;;;;5143986;27;20074;-75
2021/10/18 05:34:49;;;;;;;26.98;15.82;;;;;;;;;;5127982;27;20073;-75
2021/10/18 05:37:15;;;;;;;24.55;15.93;;;;;;;;;;5135850;27;20054;-75
2021/10/18 05:39:41;;;;;;;24.02;15.38;;;;;;;;;;5123449;27;20058;-75
2021/10/18 05:42:07;;;;;;;26.73;15.52;;;;;;;;;;5116527;27;20054;-75
2021/10/18 05:44:33;;;;;;;23.70;15.82;;;;;;;;;;5123905;27;20446;-75
2021/10/18 05:46:59;;;;;;;23.13;15.38;;;;;;;;;;5126100;27;20045;-75
2021/10/18 05:49:25;;;;;;;25.85;15.93;;;;;;;;;;5120809;27;20039;-75
2021/10/18 05:51:52;;;;;;;26.08;16.42;;;;;;;;;;5106821;27;20084;-75
2021/10/18 05:54:18;;;;;;;26.63;16.52;;;;;;;;;;5115771;27;20039;-75
2021/10/18 05:56:45;;;;;;;23.83;15.80;;;;;;;;;;5118689;27;20049;-75
2021/10/18 05:59:11;;;;;;;21.95;16.40;;;;;;;;;;5123362;27;20052;-75
2021/10/18 06:01:37;;;;;;;23.38;14.90;;;;;;;;;;5107129;27;20046;-76
2021/10/18 06:04:04;;;;;;;22.98;16.08;;;;;;;;;;5111162;27;20078;-74
2021/10/18 06:06:33;;;;;;;27.17;17.85;;;;;;;;;;5105144;27;20042;-76
2021/10/18 06:08:59;;;;;;;24.38;16.17;;;;;;;;;;5119337;27;20054;-75
2021/10/18 06:11:25;;;;;;;24.45;15.95;;;;;;;;;;5102523;27;20043;-74
2021/10/18 06:13:51;;;;;;;24.08;16.65;;;;;;;;;;5116941;27;20390;-75
2021/10/18 06:16:17;;;;;;;31.27;18.05;;;;;;;;;;5107566;27;20215;-74
2021/10/18 06:18:43;;;;;;;29.30;17.40;;;;;;;;;;5106563;27;20143;-74
2021/10/18 06:21:09;;;;;;;27.02;17.58;;;;;;;;;;5119694;27;20492;-74
2021/10/18 06:23:35;;;;;;;27.88;17.73;;;;;;;;;;5117235;27;20110;-74
2021/10/18 06:26:01;;;;;;;23.63;17.33;;;;;;;;;;5133521;27;20183;-74
2021/10/18 06:28:27;;;;;;;26.58;17.80;;;;;;;;;;5118856;27;20122;-74
2021/10/18 06:30:53;;;;;;;26.58;18.02;;;;;;;;;;5119446;27;20042;-74
2021/10/18 06:33:21;;;;;;;28.58;18.35;;;;;;;;;;5110287;27;20030;-74
2021/10/18 06:35:47;;;;;;;27.02;18.65;;;;;;;;;;5117107;27;20055;-74
2021/10/18 06:38:14;;;;;;;30.40;18.27;;;;;;;;;;5121737;27;20047;-74
2021/10/18 06:40:41;;;;;;;30.15;19.25;;;;;;;;;;5116725;27;20042;-75
2021/10/18 06:43:07;;;;;;;27.23;18.27;;;;;;;;;;5117240;27;20103;-75
2021/10/18 06:45:34;;;;;;;26.67;17.45;;;;;;;;;;5128724;27;20038;-74
2021/10/18 06:48:00;;;;;;;29.10;18.35;;;;;;;;;;5121035;27;20443;-74
2021/10/18 06:50:28;;;;;;;27.35;18.27;;;;;;;;;;5121537;27;20366;-74
2021/10/18 06:52:55;;;;;;;27.77;17.52;;;;;;;;;;5124652;27;20055;-74
2021/10/18 06:55:22;;;;;;;26.75;16.75;;;;;;;;;;5121674;27;20476;-75
2021/10/18 06:57:48;;;;;;;27.75;17.45;;;;;;;;;;5123817;27;20095;-74
2021/10/18 07:00:14;;;;;;;26.58;17.42;;;;;;;;;;5114859;27;20367;-75
2021/10/18 07:02:40;;;;;;;29.23;20.00;;;;;;;;;;5140266;27;20129;-74
2021/10/18 07:05:07;;;;;;;30.23;17.98;;;;;;;;;;5117915;27;20057;-74
2021/10/18 07:07:36;;;;;;;30.10;19.10;;;;;;;;;;5121394;27;20134;-74
2021/10/18 07:10:02;;;;;;;27.80;16.77;;;;;;;;;;5121815;27;20622;-74
2021/10/18 07:12:29;;;;;;;26.00;18.73;;;;;;;;;;5144027;27;20422;-74
2021/10/18 07:14:55;;;;;;;26.00;18.67;;;;;;;;;;5134325;27;20125;-75
2021/10/18 07:17:22;;;;;;;36.17;19.73;;;;;;;;;;5122406;27;20084;-74
2021/10/18 07:19:48;;;;;;;31.33;18.52;;;;;;;;;;5103010;27;20114;-74
2021/10/18 07:22:15;;;;;;;31.17;20.23;;;;;;;;;;5117777;27;20095;-74
2021/10/18 07:24:41;;;;;;;31.83;19.48;;;;;;;;;;5130415;27;20043;-74
2021/10/18 07:27:07;;;;;;;32.85;20.27;;;;;;;;;;5099400;27;20050;-75
2021/10/18 07:29:33;;;;;;;31.33;20.10;;;;;;;;;;5120420;27;20138;-74
2021/10/18 07:31:59;;;;;;;31.08;19.48;;;;;;;;;;5123354;27;20034;-74
2021/10/18 07:34:26;;;;;;;27.92;18.77;;;;;;;;;;5126492;27;20043;-74
2021/10/18 07:36:52;;;;;;;28.90;19.48;;;;;;;;;;5143987;27;20081;-75
2021/10/18 07:39:19;;;;;;;24.23;18.58;;;;;;;;;;5086674;27;20096;-74
2021/10/18 07:41:45;;;;;;;27.80;18.30;;;;;;;;;;5129018;27;20393;-74
2021/10/18 07:44:11;;;;;;;31.52;20.05;;;;;;;;;;5122680;27;20066;-74
2021/10/18 07:46:37;;;;;;;27.23;18.50;;;;;;;;;;5116887;27;20054;-74
2021/10/18 07:49:04;;;;;;;30.23;19.83;;;;;;;;;;5128287;27;20047;-74
2021/10/18 07:51:30;;;;;;;27.27;19.40;;;;;;;;;;5132508;27;20035;-75
2021/10/18 07:53:56;;;;;;;30.98;20.98;;;;;;;;;;5111157;27;20546;-74
2021/10/18 07:56:22;;;;;;;33.60;21.17;;;;;;;;;;5120947;27;20088;-74
2021/10/18 07:58:48;;;;;;;28.17;19.30;;;;;;;;;;5145127;27;20597;-74
2021/10/18 08:01:14;;;;;;;33.58;19.02;;;;;;;;;;5133054;27;20558;-74
2021/10/18 08:03:40;;;;;;;31.88;20.13;;;;;;;;;;5126346;27;20571;-75
2021/10/18 08:06:06;;;;;;;30.10;18.77;;;;;;;;;;5102235;28;20509;-76
2021/10/18 08:08:41;;;;;;;29.58;19.15;;;;;;;;;;5139291;27;20051;-73
2021/10/18 08:11:07;;;;;;;27.77;20.90;;;;;;;;;;5133911;27;20039;-76
2021/10/18 08:13:33;;;;;;;28.45;19.73;;;;;;;;;;5129440;27;20076;-74
2021/10/18 08:15:59;;;;;;;43.60;21.10;;;;;;;;;;5139124;27;20111;-74
2021/10/18 08:18:25;;;;;;;34.50;20.80;;;;;;;;;;5136390;27;20039;-75
2021/10/18 08:20:51;;;;;;;34.88;20.77;;;;;;;;;;5146823;27;20118;-75
2021/10/18 08:23:17;;;;;;;33.78;20.25;;;;;;;;;;5140653;27;20079;-75
2021/10/18 08:25:44;;;;;;;32.20;21.25;;;;;;;;;;5141763;27;20465;-75
2021/10/18 08:28:10;;;;;;;31.83;20.67;;;;;;;;;;5150321;27;20084;-75
2021/10/18 08:30:36;;;;;;;30.67;20.92;;;;;;;;;;5128395;27;20050;-74
2021/10/18 08:33:02;;;;;;;32.85;21.02;;;;;;;;;;5137961;27;20057;-75
2021/10/18 08:35:28;;;;;;;30.38;21.35;;;;;;;;;;5120274;27;20058;-75
2021/10/18 08:40:45;;;;;;;29.45;21.75;;;;;;;;;;5134464;27;20041;-77
2021/10/18 08:45:40;;;;;;;30.65;20.95;;;;;;;;;;5148102;27;20055;-74
2021/10/18 08:48:10;;;;;;;26.23;19.65;;;;;;;;;;5143673;27;20078;-74
2021/10/18 08:50:36;;;;;;;27.35;20.45;;;;;;;;;;5136410;27;20383;-74
2021/10/18 08:53:03;;;;;;;30.73;20.83;;;;;;;;;;5116980;27;20398;-75
2021/10/18 08:55:29;;;;;;;25.27;18.95;;;;;;;;;;5126002;27;20082;-74
2021/10/18 08:57:56;;;;;;;26.73;20.52;;;;;;;;;;5123666;27;20084;-74
2021/10/18 09:00:40;;;;;;;25.20;20.20;;;;;;;;;;5130663;27;20047;-74
2021/10/18 09:03:16;;;;;;;29.45;22.55;;;;;;;;;;5131053;27;20117;-74
2021/10/18 09:05:42;;;;;;;27.65;20.02;;;;;;;;;;5139804;27;20039;-73
2021/10/18 09:08:08;;;;;;;27.27;21.00;;;;;;;;;;5141820;27;20074;-74
2021/10/18 09:10:35;;;;;;;29.90;21.25;;;;;;;;;;5136709;27;20498;-73
2021/10/18 09:13:11;;;;;;;29.48;20.23;;;;;;;;;;5148374;27;20047;-73
2021/10/18 09:15:37;;;;;;;29.80;21.90;;;;;;;;;;5137896;27;20474;-74
2021/10/18 09:18:03;;;;;;;27.05;20.25;;;;;;;;;;5104472;27;20088;-74
2021/10/18 09:20:35;;;;;;;23.63;19.92;;;;;;;;;;5142913;27;20379;-74
2021/10/18 09:23:25;;;;;;;26.20;20.02;;;;;;;;;;5119399;27;20039;-74
2021/10/18 09:25:51;;;;;;;26.73;20.52;;;;;;;;;;5127151;27;20080;-74
2021/10/18 09:28:22;;;;;;;30.23;20.60;;;;;;;;;;5138842;27;20057;-75
2021/10/18 09:30:48;;;;;;;25.30;19.92;;;;;;;;;;5115871;27;20087;-74
2021/10/18 09:33:22;;;;;;;29.90;21.15;;;;;;;;;;5139397;27;20554;-74
2021/10/18 09:35:48;;;;;;;28.05;20.33;;;;;;;;;;5117396;27;20063;-74
2021/10/18 09:38:15;;;;;;;27.30;19.48;;;;;;;;;;5122083;27;20466;-73
2021/10/18 09:40:45;;;;;;;27.13;20.85;;;;;;;;;;5123243;27;20060;-74
2021/10/18 09:43:14;;;;;;;35.83;20.83;;;;;;;;;;5130413;27;20103;-75
2021/10/18 09:45:58;;;;;;;31.13;20.70;;;;;;;;;;5135323;27;20502;-73
2021/10/18 10:52:53;;;;;;;27.83;20.30;;;;;;;;;;5112397;27;20086;-79
2021/10/18 10:55:21;;;;;;;24.35;18.27;;;;;;;;;;5122070;27;20043;-79
2021/10/18 10:57:49;;;;;;;23.65;18.92;;;;;;;;;;5119770;27;20039;-77
2021/10/18 11:00:33;;;;;;;24.63;19.48;;;;;;;;;;5116690;27;20104;-77
2021/10/18 11:03:18;;;;;;;29.80;19.35;;;;;;;;;;5136742;27;20381;-72
2021/10/18 11:06:03;;;;;;;24.33;19.63;;;;;;;;;;5143158;27;20084;-79
2021/10/18 11:08:35;;;;;;;25.88;20.08;;;;;;;;;;5114973;27;20039;-73
2021/10/18 11:11:08;;;;;;;25.20;18.27;;;;;;;;;;5083106;27;20488;-74
2021/10/18 11:13:45;;;;;;;25.67;19.15;;;;;;;;;;5075415;28;20060;-74
2021/10/18 11:16:12;;;;;;;21.67;17.50;;;;;;;;;;5057463;28;20112;-73
2021/10/18 11:18:39;;;;;;;24.20;18.92;;;;;;;;;;5081687;28;20049;-74
2021/10/18 11:21:20;;;;;;;24.50;18.92;;;;;;;;;;5073521;28;20049;-74
2021/10/18 11:24:05;;;;;;;25.55;18.30;;;;;;;;;;5081971;28;20076;-74
2021/10/18 11:26:36;;;;;;;23.90;18.75;;;;;;;;;;5083930;28;20052;-74
2021/10/18 11:29:03;;;;;;;21.85;17.58;;;;;;;;;;5055147;28;20052;-74
2021/10/18 11:31:33;;;;;;;24.13;18.80;;;;;;;;;;5048930;28;20049;-74
2021/10/18 11:34:10;;;;;;;24.27;17.95;;;;;;;;;;5084331;28;20045;-74
2021/10/18 11:36:38;;;;;;;23.70;18.08;;;;;;;;;;5049068;28;20071;-74
2021/10/18 11:39:10;;;;;;;22.13;17.25;;;;;;;;;;5065859;28;20441;-74
2021/10/18 11:41:55;;;;;;;22.50;17.92;;;;;;;;;;5078177;28;20051;-74
2021/10/18 11:44:37;;;;;;;21.48;16.65;;;;;;;;;;5072251;28;20156;-74
2021/10/18 11:47:03;;;;;;;18.90;16.52;;;;;;;;;;5049937;28;20056;-74
2021/10/18 11:49:29;;;;;;;21.92;16.02;;;;;;;;;;5061856;28;20044;-74
2021/10/18 11:51:55;;;;;;;22.48;17.52;;;;;;;;;;5051077;28;20045;-74
2021/10/18 11:54:22;;;;;;;21.27;17.15;;;;;;;;;;5076901;28;20053;-74
2021/10/18 11:56:54;;;;;;;20.20;16.77;;;;;;;;;;5061852;28;20041;-74
2021/10/18 11:59:20;;;;;;;26.48;18.92;;;;;;;;;;5058656;28;20078;-74
2021/10/18 12:01:46;;;;;;;21.13;17.88;;;;;;;;;;5056815;28;20507;-74
2021/10/18 12:04:12;;;;;;;21.23;17.30;;;;;;;;;;5086993;28;20057;-74
2021/10/18 12:06:48;;;;;;;23.73;18.05;;;;;;;;;;5056194;28;20056;-74
2021/10/18 12:09:27;;;;;;;27.73;18.20;;;;;;;;;;5088475;28;20065;-74
2021/10/18 12:11:54;;;;;;;24.08;17.15;;;;;;;;;;5074708;28;20052;-75
2021/10/18 12:14:20;;;;;;;24.15;17.38;;;;;;;;;;5095179;28;20091;-74
2021/10/18 12:16:46;;;;;;;22.20;17.80;;;;;;;;;;5062547;28;20095;-74
2021/10/18 12:19:13;;;;;;;26.15;18.55;;;;;;;;;;5055100;28;20397;-74
2021/10/18 12:21:40;;;;;;;29.63;18.17;;;;;;;;;;5061732;28;20061;-74
2021/10/18 12:24:08;;;;;;;20.42;16.17;;;;;;;;;;5054226;28;20041;-74
2021/10/18 12:26:40;;;;;;;23.08;18.58;;;;;;;;;;5035250;28;20111;-74
2021/10/18 12:29:07;;;;;;;21.20;15.57;;;;;;;;;;5057654;28;20114;-74
2021/10/18 12:31:49;;;;;;;24.17;17.00;;;;;;;;;;5046413;28;20046;-74
2021/10/18 12:34:15;;;;;;;19.90;15.63;;;;;;;;;;5033697;28;20557;-74
2021/10/18 12:36:57;;;;;;;20.17;16.17;;;;;;;;;;5044628;28;20052;-74
2021/10/18 12:39:33;;;;;;;23.05;15.70;;;;;;;;;;5047301;28;20048;-74
2021/10/18 12:41:59;;;;;;;21.42;15.27;;;;;;;;;;5059650;28;20080;-73
2021/10/18 12:44:29;;;;;;;18.17;14.75;;;;;;;;;;5043325;28;20041;-74
2021/10/18 12:46:55;;;;;;;21.92;14.90;;;;;;;;;;5053389;28;20480;-73
2021/10/18 12:49:28;;;;;;;17.42;13.40;;;;;;;;;;5068143;28;20045;-74
2021/10/18 12:51:54;;;;;;;17.73;14.13;;;;;;;;;;5068380;28;20107;-74
2021/10/18 12:54:24;;;;;;;18.15;14.32;;;;;;;;;;5041438;28;20041;-75
2021/10/18 12:57:00;;;;;;;18.15;14.13;;;;;;;;;;5060936;28;20516;-74
2021/10/18 12:59:26;;;;;;;20.35;15.00;;;;;;;;;;5081788;28;20129;-74
2021/10/18 13:02:14;;;;;;;18.50;14.00;;;;;;;;;;5046898;28;20128;-74
2021/10/18 13:04:40;;;;;;;16.75;13.45;;;;;;;;;;5071598;28;20527;-74
2021/10/18 13:07:06;;;;;;;19.88;14.48;;;;;;;;;;5051673;28;20051;-74
2021/10/18 13:09:32;;;;;;;19.77;13.75;;;;;;;;;;5046045;28;20441;-74
2021/10/18 13:11:58;;;;;;;16.42;13.13;;;;;;;;;;5047167;28;20125;-74
2021/10/18 13:14:24;;;;;;;15.82;13.13;;;;;;;;;;5036184;28;20084;-74
2021/10/18 13:16:50;;;;;;;24.27;14.55;;;;;;;;;;5051305;28;20053;-74
2021/10/18 13:19:16;;;;;;;22.67;14.70;;;;;;;;;;5047479;28;20051;-74
2021/10/18 13:21:42;;;;;;;15.90;13.68;;;;;;;;;;5053740;28;20052;-74
2021/10/18 13:24:08;;;;;;;18.25;13.45;;;;;;;;;;5032889;28;20099;-74
2021/10/18 13:26:34;;;;;;;18.30;12.85;;;;;;;;;;5037065;28;20076;-74
2021/10/18 13:29:00;;;;;;;19.92;13.45;;;;;;;;;;5032483;28;20054;-74
2021/10/18 13:31:26;;;;;;;16.25;14.15;;;;;;;;;;5051089;28;20045;-74
2021/10/18 13:33:52;;;;;;;17.50;11.50;;;;;;;;;;5048871;28;20512;-74
2021/10/18 13:36:19;;;;;;;16.77;12.25;;;;;;;;;;5060492;28;20131;-74
2021/10/18 13:38:45;;;;;;;18.65;12.38;;;;;;;;;;5064860;28;20054;-74
2021/10/18 13:41:11;;;;;;;19.75;12.80;;;;;;;;;;5032839;28;20053;-74
2021/10/18 13:43:37;;;;;;;17.13;12.43;;;;;;;;;;5040927;28;20088;-74
2021/10/18 13:46:03;;;;;;;14.38;11.57;;;;;;;;;;5040227;28;20046;-74
2021/10/18 13:48:29;;;;;;;16.95;12.93;;;;;;;;;;5072539;28;20052;-74
2021/10/18 13:50:55;;;;;;;19.02;13.43;;;;;;;;;;5064545;28;20497;-74
2021/10/18 13:53:21;;;;;;;17.55;13.05;;;;;;;;;;5062272;28;20094;-74
2021/10/18 13:55:49;;;;;;;20.08;12.90;;;;;;;;;;5042180;28;20041;-74
2021/10/18 13:58:15;;;;;;;17.70;13.20;;;;;;;;;;5060477;28;20053;-74
2021/10/18 14:00:41;;;;;;;19.15;12.30;;;;;;;;;;5038531;28;20044;-74
2021/10/18 14:03:07;;;;;;;18.20;12.85;;;;;;;;;;5065927;28;20496;-74
2021/10/18 14:05:33;;;;;;;17.45;12.25;;;;;;;;;;5036680;28;20535;-74
2021/10/18 14:07:59;;;;;;;16.95;12.48;;;;;;;;;;5032414;28;20398;-74
2021/10/18 14:10:25;;;;;;;18.92;12.93;;;;;;;;;;5034030;28;20584;-74
2021/10/18 14:12:52;;;;;;;17.63;12.57;;;;;;;;;;5047420;28;20136;-75
2021/10/18 14:15:18;;;;;;;16.85;12.82;;;;;;;;;;5048546;28;20049;-74
2021/10/18 14:17:44;;;;;;;17.05;13.65;;;;;;;;;;5046992;28;20575;-73
2021/10/18 14:20:12;;;;;;;17.60;12.23;;;;;;;;;;5031672;28;20425;-74
2021/10/18 14:22:38;;;;;;;16.73;12.43;;;;;;;;;;5051741;28;20056;-74
2021/10/18 14:25:07;;;;;;;16.02;12.00;;;;;;;;;;5033385;28;20053;-74
2021/10/18 14:27:34;;;;;;;19.08;12.77;;;;;;;;;;5064796;28;20041;-74
2021/10/18 14:30:00;;;;;;;18.40;12.05;;;;;;;;;;5046659;28;20045;-74
2021/10/18 14:32:26;;;;;;;19.30;12.35;;;;;;;;;;5033262;28;20052;-74
2021/10/18 14:34:52;;;;;;;16.92;12.80;;;;;;;;;;5064512;28;20045;-75
2021/10/18 14:37:18;;;;;;;19.10;11.68;;;;;;;;;;5077553;28;20056;-74
2021/10/18 14:39:44;;;;;;;17.95;12.13;;;;;;;;;;5048041;28;20041;-74
2021/10/18 14:42:11;;;;;;;18.13;13.02;;;;;;;;;;5044854;28;20107;-74
2021/10/18 14:44:37;;;;;;;18.05;11.98;;;;;;;;;;5039491;28;20477;-74
2021/10/18 14:47:03;;;;;;;16.77;12.10;;;;;;;;;;5034504;28;20581;-74
2021/10/18 14:49:29;;;;;;;14.35;11.98;;;;;;;;;;5063621;28;20049;-75
2021/10/18 14:51:55;;;;;;;18.75;12.70;;;;;;;;;;5056785;28;20084;-75
2021/10/18 14:54:21;;;;;;;15.30;12.43;;;;;;;;;;5046304;28;20396;-74
2021/10/18 14:56:48;;;;;;;15.50;12.38;;;;;;;;;;5060505;28;20045;-74
2021/10/18 14:59:15;;;;;;;17.95;12.23;;;;;;;;;;5031016;28;20464;-74
2021/10/18 15:01:41;;;;;;;19.42;12.50;;;;;;;;;;5037291;28;20656;-74
2021/10/18 15:04:07;;;;;;;18.67;13.27;;;;;;;;;;5057469;28;20061;-74
2021/10/18 15:06:35;;;;;;;18.45;13.13;;;;;;;;;;5055020;28;20059;-73
2021/10/18 15:09:03;;;;;;;16.05;12.50;;;;;;;;;;5057137;28;20097;-74
2021/10/18 15:11:29;;;;;;;20.52;14.13;;;;;;;;;;5063518;28;20400;-74
2021/10/18 15:13:55;;;;;;;19.67;12.85;;;;;;;;;;5048902;28;20492;-74
2021/10/18 15:16:21;;;;;;;17.10;13.70;;;;;;;;;;5046327;28;20060;-74
2021/10/18 15:18:47;;;;;;;17.60;12.80;;;;;;;;;;5050707;28;20052;-74
2021/10/18 15:21:14;;;;;;;16.80;13.32;;;;;;;;;;5061107;28;20081;-74
2021/10/18 15:23:40;;;;;;;18.60;13.25;;;;;;;;;;5058373;28;20076;-74
2021/10/18 15:26:07;;;;;;;17.83;12.98;;;;;;;;;;5046668;28;20049;-74
2021/10/18 15:28:33;;;;;;;20.48;14.18;;;;;;;;;;5051328;28;20083;-74